sensor_id;sensor_type;location;lat;lon;timestamp;P1;durP1;ratioP1;P2;durP2;ratioP2
75009;SDS011;63564;46.840;18.336;2023-04-25T00:01:15;5.82;;;2.30;;
75009;SDS011;63564;46.840;18.336;2023-04-25T00:04:16;5.15;;;2.20;;
75009;SDS011;63564;46.840;18.336;2023-04-25T00:07:16;4.80;;;2.20;;
75009;SDS011;63564;46.840;18.336;2023-04-25T00:10:17;5.00;;;1.90;;
75009;SDS011;63564;46.840;18.336;2023-04-25T00:13:19;4.80;;;2.15;;
75009;SDS011;63564;46.840;18.336;2023-04-25T00:16:20;4.72;;;2.15;;
75009;SDS011;63564;46.840;18.336;2023-04-25T00:19:20;6.82;;;2.45;;
75009;SDS011;63564;46.840;18.336;2023-04-25T00:22:21;5.17;;;2.13;;
75009;SDS011;63564;46.840;18.336;2023-04-25T00:25:21;5.63;;;2.40;;
75009;SDS011;63564;46.840;18.336;2023-04-25T00:28:21;5.27;;;2.30;;
75009;SDS011;63564;46.840;18.336;2023-04-25T00:31:22;5.00;;;1.97;;
75009;SDS011;63564;46.840;18.336;2023-04-25T00:34:22;4.63;;;2.23;;
75009;SDS011;63564;46.840;18.336;2023-04-25T00:37:22;5.13;;;2.17;;
75009;SDS011;63564;46.840;18.336;2023-04-25T00:40:23;4.55;;;2.40;;
75009;SDS011;63564;46.840;18.336;2023-04-25T00:43:25;6.90;;;2.43;;
75009;SDS011;63564;46.840;18.336;2023-04-25T00:46:26;4.80;;;2.20;;
75009;SDS011;63564;46.840;18.336;2023-04-25T00:49:26;5.13;;;2.10;;
75009;SDS011;63564;46.840;18.336;2023-04-25T00:52:27;5.17;;;2.27;;
75009;SDS011;63564;46.840;18.336;2023-04-25T00:55:27;5.10;;;2.40;;
75009;SDS011;63564;46.840;18.336;2023-04-25T00:58:28;5.15;;;2.40;;
75009;SDS011;63564;46.840;18.336;2023-04-25T01:01:28;4.80;;;2.50;;
75009;SDS011;63564;46.840;18.336;2023-04-25T01:04:28;5.77;;;2.50;;
75009;SDS011;63564;46.840;18.336;2023-04-25T01:07:29;5.13;;;2.10;;
75009;SDS011;63564;46.840;18.336;2023-04-25T01:10:30;5.00;;;2.30;;
75009;SDS011;63564;46.840;18.336;2023-04-25T01:13:30;5.50;;;2.50;;
75009;SDS011;63564;46.840;18.336;2023-04-25T01:16:32;5.93;;;2.37;;
75009;SDS011;63564;46.840;18.336;2023-04-25T01:19:33;5.47;;;2.20;;
75009;SDS011;63564;46.840;18.336;2023-04-25T01:22:33;5.03;;;2.70;;
75009;SDS011;63564;46.840;18.336;2023-04-25T01:25:34;4.55;;;2.10;;
75009;SDS011;63564;46.840;18.336;2023-04-25T01:28:34;4.40;;;2.30;;
75009;SDS011;63564;46.840;18.336;2023-04-25T01:31:36;4.90;;;2.40;;
75009;SDS011;63564;46.840;18.336;2023-04-25T01:34:37;6.28;;;2.42;;
75009;SDS011;63564;46.840;18.336;2023-04-25T01:37:40;4.60;;;2.03;;
75009;SDS011;63564;46.840;18.336;2023-04-25T01:40:42;4.45;;;2.20;;
75009;SDS011;63564;46.840;18.336;2023-04-25T01:43:45;4.38;;;2.13;;
75009;SDS011;63564;46.840;18.336;2023-04-25T01:46:45;4.70;;;2.20;;
75009;SDS011;63564;46.840;18.336;2023-04-25T01:49:46;4.23;;;2.00;;
75009;SDS011;63564;46.840;18.336;2023-04-25T01:52:46;4.93;;;2.20;;
75009;SDS011;63564;46.840;18.336;2023-04-25T01:55:47;4.25;;;1.90;;
75009;SDS011;63564;46.840;18.336;2023-04-25T01:58:47;4.70;;;2.30;;
75009;SDS011;63564;46.840;18.336;2023-04-25T02:01:48;4.90;;;2.20;;
75009;SDS011;63564;46.840;18.336;2023-04-25T02:04:49;4.65;;;1.98;;
75009;SDS011;63564;46.840;18.336;2023-04-25T02:07:49;4.60;;;1.90;;
75009;SDS011;63564;46.840;18.336;2023-04-25T02:10:49;4.70;;;2.07;;
75009;SDS011;63564;46.840;18.336;2023-04-25T02:13:50;4.90;;;2.00;;
75009;SDS011;63564;46.840;18.336;2023-04-25T02:16:50;4.73;;;1.93;;
75009;SDS011;63564;46.840;18.336;2023-04-25T02:19:51;4.55;;;1.90;;
75009;SDS011;63564;46.840;18.336;2023-04-25T02:22:51;4.90;;;2.10;;
75009;SDS011;63564;46.840;18.336;2023-04-25T02:25:52;4.77;;;2.10;;
75009;SDS011;63564;46.840;18.336;2023-04-25T02:28:52;4.28;;;1.90;;
75009;SDS011;63564;46.840;18.336;2023-04-25T02:31:53;4.35;;;2.00;;
75009;SDS011;63564;46.840;18.336;2023-04-25T02:34:53;5.10;;;2.00;;
75009;SDS011;63564;46.840;18.336;2023-04-25T02:37:54;3.97;;;1.80;;
75009;SDS011;63564;46.840;18.336;2023-04-25T02:40:54;4.57;;;1.87;;
75009;SDS011;63564;46.840;18.336;2023-04-25T02:43:55;5.37;;;1.90;;
75009;SDS011;63564;46.840;18.336;2023-04-25T02:46:55;4.18;;;1.65;;
75009;SDS011;63564;46.840;18.336;2023-04-25T02:49:55;4.22;;;1.75;;
75009;SDS011;63564;46.840;18.336;2023-04-25T02:52:56;4.10;;;1.70;;
75009;SDS011;63564;46.840;18.336;2023-04-25T02:55:56;4.33;;;1.93;;
75009;SDS011;63564;46.840;18.336;2023-04-25T02:58:58;4.00;;;2.03;;
75009;SDS011;63564;46.840;18.336;2023-04-25T03:01:58;4.37;;;1.90;;
75009;SDS011;63564;46.840;18.336;2023-04-25T03:04:59;4.17;;;1.90;;
75009;SDS011;63564;46.840;18.336;2023-04-25T03:07:59;4.17;;;2.20;;
75009;SDS011;63564;46.840;18.336;2023-04-25T03:10:59;3.50;;;1.80;;
75009;SDS011;63564;46.840;18.336;2023-04-25T03:14:00;6.10;;;1.83;;
75009;SDS011;63564;46.840;18.336;2023-04-25T03:17:01;3.40;;;1.70;;
75009;SDS011;63564;46.840;18.336;2023-04-25T03:20:01;5.60;;;1.90;;
75009;SDS011;63564;46.840;18.336;2023-04-25T03:23:05;4.10;;;2.05;;
75009;SDS011;63564;46.840;18.336;2023-04-25T03:26:05;5.47;;;2.10;;
75009;SDS011;63564;46.840;18.336;2023-04-25T03:29:06;4.80;;;2.13;;
75009;SDS011;63564;46.840;18.336;2023-04-25T03:32:06;5.20;;;2.00;;
75009;SDS011;63564;46.840;18.336;2023-04-25T03:35:07;4.82;;;1.98;;
75009;SDS011;63564;46.840;18.336;2023-04-25T03:38:07;4.45;;;1.98;;
75009;SDS011;63564;46.840;18.336;2023-04-25T03:41:08;4.30;;;2.23;;
75009;SDS011;63564;46.840;18.336;2023-04-25T03:44:08;4.18;;;2.30;;
75009;SDS011;63564;46.840;18.336;2023-04-25T03:47:09;5.17;;;2.30;;
75009;SDS011;63564;46.840;18.336;2023-04-25T03:50:09;4.57;;;2.17;;
75009;SDS011;63564;46.840;18.336;2023-04-25T03:53:10;4.70;;;2.17;;
75009;SDS011;63564;46.840;18.336;2023-04-25T03:56:10;5.27;;;2.50;;
75009;SDS011;63564;46.840;18.336;2023-04-25T03:59:10;5.93;;;2.80;;
75009;SDS011;63564;46.840;18.336;2023-04-25T04:02:11;4.90;;;2.30;;
75009;SDS011;63564;46.840;18.336;2023-04-25T04:05:11;5.57;;;2.40;;
75009;SDS011;63564;46.840;18.336;2023-04-25T04:08:12;4.67;;;2.17;;
75009;SDS011;63564;46.840;18.336;2023-04-25T04:11:12;5.23;;;2.40;;
75009;SDS011;63564;46.840;18.336;2023-04-25T04:14:13;5.05;;;2.50;;
75009;SDS011;63564;46.840;18.336;2023-04-25T04:17:13;5.07;;;2.07;;
75009;SDS011;63564;46.840;18.336;2023-04-25T04:20:13;4.83;;;2.00;;
75009;SDS011;63564;46.840;18.336;2023-04-25T04:23:14;4.77;;;2.10;;
75009;SDS011;63564;46.840;18.336;2023-04-25T04:26:14;4.43;;;2.20;;
75009;SDS011;63564;46.840;18.336;2023-04-25T04:29:18;5.65;;;2.20;;
75009;SDS011;63564;46.840;18.336;2023-04-25T04:32:21;6.72;;;2.58;;
75009;SDS011;63564;46.840;18.336;2023-04-25T04:35:23;4.40;;;2.10;;
75009;SDS011;63564;46.840;18.336;2023-04-25T04:38:24;4.22;;;2.00;;
75009;SDS011;63564;46.840;18.336;2023-04-25T04:41:25;5.00;;;2.00;;
75009;SDS011;63564;46.840;18.336;2023-04-25T04:44:26;6.37;;;2.93;;
75009;SDS011;63564;46.840;18.336;2023-04-25T04:47:26;5.50;;;2.40;;
75009;SDS011;63564;46.840;18.336;2023-04-25T04:50:30;4.32;;;1.92;;
75009;SDS011;63564;46.840;18.336;2023-04-25T04:53:32;5.80;;;2.60;;
75009;SDS011;63564;46.840;18.336;2023-04-25T04:56:32;5.40;;;2.07;;
75009;SDS011;63564;46.840;18.336;2023-04-25T04:59:33;5.63;;;2.43;;
75009;SDS011;63564;46.840;18.336;2023-04-25T05:02:33;4.57;;;2.25;;
75009;SDS011;63564;46.840;18.336;2023-04-25T05:05:33;5.07;;;2.40;;
75009;SDS011;63564;46.840;18.336;2023-04-25T05:08:34;4.93;;;2.40;;
75009;SDS011;63564;46.840;18.336;2023-04-25T05:11:34;5.43;;;2.23;;
75009;SDS011;63564;46.840;18.336;2023-04-25T05:14:35;4.43;;;2.03;;
75009;SDS011;63564;46.840;18.336;2023-04-25T05:17:35;5.70;;;2.23;;
75009;SDS011;63564;46.840;18.336;2023-04-25T05:20:35;3.63;;;1.73;;
75009;SDS011;63564;46.840;18.336;2023-04-25T05:23:36;5.18;;;2.30;;
75009;SDS011;63564;46.840;18.336;2023-04-25T05:26:37;5.33;;;2.30;;
75009;SDS011;63564;46.840;18.336;2023-04-25T05:29:37;5.22;;;2.00;;
75009;SDS011;63564;46.840;18.336;2023-04-25T05:32:38;4.73;;;2.20;;
75009;SDS011;63564;46.840;18.336;2023-04-25T05:35:38;5.07;;;2.43;;
75009;SDS011;63564;46.840;18.336;2023-04-25T05:38:39;6.67;;;2.33;;
75009;SDS011;63564;46.840;18.336;2023-04-25T05:41:39;5.57;;;2.40;;
75009;SDS011;63564;46.840;18.336;2023-04-25T05:44:40;6.13;;;2.40;;
75009;SDS011;63564;46.840;18.336;2023-04-25T05:47:40;5.53;;;2.30;;
75009;SDS011;63564;46.840;18.336;2023-04-25T05:50:41;4.77;;;2.27;;
75009;SDS011;63564;46.840;18.336;2023-04-25T05:53:41;5.63;;;2.67;;
75009;SDS011;63564;46.840;18.336;2023-04-25T05:56:41;10.10;;;2.57;;
75009;SDS011;63564;46.840;18.336;2023-04-25T05:59:42;4.87;;;1.90;;
75009;SDS011;63564;46.840;18.336;2023-04-25T06:02:42;5.70;;;2.20;;
75009;SDS011;63564;46.840;18.336;2023-04-25T06:05:42;6.10;;;2.30;;
75009;SDS011;63564;46.840;18.336;2023-04-25T06:08:43;5.03;;;2.20;;
75009;SDS011;63564;46.840;18.336;2023-04-25T06:11:44;4.95;;;2.40;;
75009;SDS011;63564;46.840;18.336;2023-04-25T06:14:45;5.00;;;2.10;;
75009;SDS011;63564;46.840;18.336;2023-04-25T06:17:45;6.80;;;2.60;;
75009;SDS011;63564;46.840;18.336;2023-04-25T06:20:45;4.87;;;2.33;;
75009;SDS011;63564;46.840;18.336;2023-04-25T06:23:46;4.40;;;2.22;;
75009;SDS011;63564;46.840;18.336;2023-04-25T06:26:46;5.67;;;2.20;;
75009;SDS011;63564;46.840;18.336;2023-04-25T06:29:47;4.43;;;2.10;;
75009;SDS011;63564;46.840;18.336;2023-04-25T06:32:48;6.15;;;2.38;;
75009;SDS011;63564;46.840;18.336;2023-04-25T06:35:48;5.53;;;2.43;;
75009;SDS011;63564;46.840;18.336;2023-04-25T06:38:48;5.93;;;2.20;;
75009;SDS011;63564;46.840;18.336;2023-04-25T06:41:49;6.27;;;2.17;;
75009;SDS011;63564;46.840;18.336;2023-04-25T06:44:49;5.50;;;2.50;;
75009;SDS011;63564;46.840;18.336;2023-04-25T06:47:50;7.83;;;2.47;;
75009;SDS011;63564;46.840;18.336;2023-04-25T06:50:50;5.05;;;2.10;;
75009;SDS011;63564;46.840;18.336;2023-04-25T06:53:50;4.10;;;1.77;;
75009;SDS011;63564;46.840;18.336;2023-04-25T06:56:51;6.53;;;2.90;;
75009;SDS011;63564;46.840;18.336;2023-04-25T06:59:51;4.80;;;2.17;;
75009;SDS011;63564;46.840;18.336;2023-04-25T07:02:52;4.47;;;1.90;;
75009;SDS011;63564;46.840;18.336;2023-04-25T07:05:52;5.35;;;2.30;;
75009;SDS011;63564;46.840;18.336;2023-04-25T07:08:53;5.33;;;2.30;;
75009;SDS011;63564;46.840;18.336;2023-04-25T07:11:54;3.43;;;1.80;;
75009;SDS011;63564;46.840;18.336;2023-04-25T07:14:54;4.78;;;2.30;;
75009;SDS011;63564;46.840;18.336;2023-04-25T07:17:54;6.27;;;2.60;;
75009;SDS011;63564;46.840;18.336;2023-04-25T07:20:55;5.43;;;2.40;;
75009;SDS011;63564;46.840;18.336;2023-04-25T07:23:55;5.40;;;2.50;;
75009;SDS011;63564;46.840;18.336;2023-04-25T07:26:55;4.10;;;1.93;;
75009;SDS011;63564;46.840;18.336;2023-04-25T07:29:56;5.63;;;2.50;;
75009;SDS011;63564;46.840;18.336;2023-04-25T07:32:57;6.32;;;2.60;;
75009;SDS011;63564;46.840;18.336;2023-04-25T07:35:57;5.37;;;2.50;;
75009;SDS011;63564;46.840;18.336;2023-04-25T07:38:58;5.10;;;2.40;;
75009;SDS011;63564;46.840;18.336;2023-04-25T07:41:58;7.63;;;2.60;;
75009;SDS011;63564;46.840;18.336;2023-04-25T07:44:59;5.68;;;2.70;;
75009;SDS011;63564;46.840;18.336;2023-04-25T07:48:00;6.40;;;2.70;;
75009;SDS011;63564;46.840;18.336;2023-04-25T07:51:00;5.22;;;2.50;;
75009;SDS011;63564;46.840;18.336;2023-04-25T07:54:01;5.90;;;2.40;;
75009;SDS011;63564;46.840;18.336;2023-04-25T07:57:01;5.10;;;2.30;;
75009;SDS011;63564;46.840;18.336;2023-04-25T08:00:02;6.85;;;2.80;;
75009;SDS011;63564;46.840;18.336;2023-04-25T08:03:03;6.47;;;2.90;;
75009;SDS011;63564;46.840;18.336;2023-04-25T08:06:03;5.20;;;2.70;;
75009;SDS011;63564;46.840;18.336;2023-04-25T08:09:04;6.30;;;2.72;;
75009;SDS011;63564;46.840;18.336;2023-04-25T08:12:04;5.50;;;2.67;;
75009;SDS011;63564;46.840;18.336;2023-04-25T08:15:05;5.80;;;2.63;;
75009;SDS011;63564;46.840;18.336;2023-04-25T08:18:06;5.28;;;2.38;;
75009;SDS011;63564;46.840;18.336;2023-04-25T08:21:06;5.40;;;2.33;;
75009;SDS011;63564;46.840;18.336;2023-04-25T08:24:08;6.55;;;3.13;;
75009;SDS011;63564;46.840;18.336;2023-04-25T08:27:09;4.33;;;2.00;;
75009;SDS011;63564;46.840;18.336;2023-04-25T08:30:09;5.70;;;2.80;;
75009;SDS011;63564;46.840;18.336;2023-04-25T08:33:10;5.57;;;3.00;;
75009;SDS011;63564;46.840;18.336;2023-04-25T08:36:11;5.80;;;2.90;;
75009;SDS011;63564;46.840;18.336;2023-04-25T08:39:11;5.80;;;3.10;;
75009;SDS011;63564;46.840;18.336;2023-04-25T08:42:13;6.00;;;3.07;;
75009;SDS011;63564;46.840;18.336;2023-04-25T08:45:14;5.97;;;2.85;;
75009;SDS011;63564;46.840;18.336;2023-04-25T08:48:15;5.47;;;2.70;;
75009;SDS011;63564;46.840;18.336;2023-04-25T08:51:21;6.72;;;2.95;;
75009;SDS011;63564;46.840;18.336;2023-04-25T08:54:24;5.25;;;2.60;;
75009;SDS011;63564;46.840;18.336;2023-04-25T08:57:28;6.22;;;2.70;;
75009;SDS011;63564;46.840;18.336;2023-04-25T09:00:30;5.72;;;2.85;;
75009;SDS011;63564;46.840;18.336;2023-04-25T09:03:31;5.63;;;2.80;;
75009;SDS011;63564;46.840;18.336;2023-04-25T09:06:31;6.20;;;2.93;;
75009;SDS011;63564;46.840;18.336;2023-04-25T09:09:34;5.63;;;3.10;;
75009;SDS011;63564;46.840;18.336;2023-04-25T09:12:35;5.93;;;2.70;;
75009;SDS011;63564;46.840;18.336;2023-04-25T09:16:09;5.22;;;2.58;;
75009;SDS011;63564;46.840;18.336;2023-04-25T09:19:03;5.80;;;2.70;;
75009;SDS011;63564;46.840;18.336;2023-04-25T09:22:04;7.05;;;2.80;;
75009;SDS011;63564;46.840;18.336;2023-04-25T09:25:08;6.27;;;2.90;;
75009;SDS011;63564;46.840;18.336;2023-04-25T09:28:10;6.47;;;2.60;;
75009;SDS011;63564;46.840;18.336;2023-04-25T09:31:11;5.40;;;2.70;;
75009;SDS011;63564;46.840;18.336;2023-04-25T09:34:11;6.57;;;2.73;;
75009;SDS011;63564;46.840;18.336;2023-04-25T09:37:25;6.13;;;2.90;;
75009;SDS011;63564;46.840;18.336;2023-04-25T09:40:27;5.93;;;3.00;;
75009;SDS011;63564;46.840;18.336;2023-04-25T09:43:30;7.10;;;3.00;;
75009;SDS011;63564;46.840;18.336;2023-04-25T09:46:34;6.00;;;2.60;;
75009;SDS011;63564;46.840;18.336;2023-04-25T09:49:38;6.33;;;2.90;;
75009;SDS011;63564;46.840;18.336;2023-04-25T09:52:40;5.15;;;2.63;;
75009;SDS011;63564;46.840;18.336;2023-04-25T09:55:44;5.28;;;2.45;;
75009;SDS011;63564;46.840;18.336;2023-04-25T09:58:45;4.35;;;2.08;;
75009;SDS011;63564;46.840;18.336;2023-04-25T10:01:47;6.28;;;2.60;;
75009;SDS011;63564;46.840;18.336;2023-04-25T10:04:50;4.23;;;2.30;;
75009;SDS011;63564;46.840;18.336;2023-04-25T10:07:58;5.00;;;2.55;;
75009;SDS011;63564;46.840;18.336;2023-04-25T10:11:03;5.78;;;2.30;;
75009;SDS011;63564;46.840;18.336;2023-04-25T10:14:08;5.20;;;2.25;;
75009;SDS011;63564;46.840;18.336;2023-04-25T10:17:10;4.53;;;2.10;;
75009;SDS011;63564;46.840;18.336;2023-04-25T10:20:11;4.67;;;2.17;;
75009;SDS011;63564;46.840;18.336;2023-04-25T10:23:13;5.88;;;2.40;;
75009;SDS011;63564;46.840;18.336;2023-04-25T10:26:15;5.18;;;2.40;;
75009;SDS011;63564;46.840;18.336;2023-04-25T10:29:24;4.57;;;1.88;;
75009;SDS011;63564;46.840;18.336;2023-04-25T10:32:25;6.63;;;2.78;;
75009;SDS011;63564;46.840;18.336;2023-04-25T10:38:30;4.87;;;2.07;;
75009;SDS011;63564;46.840;18.336;2023-04-25T10:41:30;5.70;;;2.17;;
75009;SDS011;63564;46.840;18.336;2023-04-25T10:44:31;3.90;;;2.20;;
75009;SDS011;63564;46.840;18.336;2023-04-25T10:47:35;5.47;;;2.30;;
75009;SDS011;63564;46.840;18.336;2023-04-25T10:50:37;4.63;;;2.10;;
75009;SDS011;63564;46.840;18.336;2023-04-25T10:53:39;6.50;;;2.13;;
75009;SDS011;63564;46.840;18.336;2023-04-25T10:56:40;4.10;;;1.97;;
75009;SDS011;63564;46.840;18.336;2023-04-25T10:59:44;4.70;;;2.28;;
75009;SDS011;63564;46.840;18.336;2023-04-25T11:02:57;5.45;;;2.38;;
75009;SDS011;63564;46.840;18.336;2023-04-25T11:05:58;3.93;;;2.00;;
75009;SDS011;63564;46.840;18.336;2023-04-25T11:09:02;5.10;;;2.08;;
75009;SDS011;63564;46.840;18.336;2023-04-25T11:12:02;6.55;;;2.28;;
75009;SDS011;63564;46.840;18.336;2023-04-25T11:15:04;6.97;;;2.17;;
75009;SDS011;63564;46.840;18.336;2023-04-25T11:18:05;4.93;;;2.15;;
75009;SDS011;63564;46.840;18.336;2023-04-25T11:21:06;5.13;;;2.10;;
75009;SDS011;63564;46.840;18.336;2023-04-25T11:24:06;4.20;;;1.90;;
75009;SDS011;63564;46.840;18.336;2023-04-25T11:27:07;4.30;;;1.90;;
75009;SDS011;63564;46.840;18.336;2023-04-25T11:30:12;4.40;;;2.00;;
75009;SDS011;63564;46.840;18.336;2023-04-25T11:33:13;5.25;;;2.33;;
75009;SDS011;63564;46.840;18.336;2023-04-25T11:36:14;7.20;;;2.40;;
75009;SDS011;63564;46.840;18.336;2023-04-25T11:39:14;5.23;;;2.20;;
75009;SDS011;63564;46.840;18.336;2023-04-25T11:42:15;8.43;;;2.80;;
75009;SDS011;63564;46.840;18.336;2023-04-25T11:45:15;4.80;;;2.00;;
75009;SDS011;63564;46.840;18.336;2023-04-25T11:48:16;4.20;;;1.75;;
75009;SDS011;63564;46.840;18.336;2023-04-25T11:51:17;4.07;;;2.00;;
75009;SDS011;63564;46.840;18.336;2023-04-25T11:54:17;5.30;;;1.70;;
75009;SDS011;63564;46.840;18.336;2023-04-25T11:57:21;3.90;;;1.80;;
75009;SDS011;63564;46.840;18.336;2023-04-25T12:00:22;4.13;;;2.07;;
75009;SDS011;63564;46.840;18.336;2023-04-25T12:03:23;4.00;;;2.00;;
75009;SDS011;63564;46.840;18.336;2023-04-25T12:06:27;4.03;;;1.90;;
75009;SDS011;63564;46.840;18.336;2023-04-25T12:09:32;5.20;;;2.42;;
75009;SDS011;63564;46.840;18.336;2023-04-25T12:12:33;4.18;;;2.08;;
75009;SDS011;63564;46.840;18.336;2023-04-25T12:15:35;3.87;;;2.00;;
75009;SDS011;63564;46.840;18.336;2023-04-25T12:18:35;4.93;;;1.90;;
75009;SDS011;63564;46.840;18.336;2023-04-25T12:21:36;3.80;;;2.10;;
75009;SDS011;63564;46.840;18.336;2023-04-25T12:24:36;4.43;;;2.00;;
75009;SDS011;63564;46.840;18.336;2023-04-25T12:27:36;4.27;;;2.00;;
75009;SDS011;63564;46.840;18.336;2023-04-25T12:34:00;4.28;;;1.80;;
75009;SDS011;63564;46.840;18.336;2023-04-25T12:37:00;5.20;;;2.00;;
75009;SDS011;63564;46.840;18.336;2023-04-25T12:40:01;3.70;;;1.90;;
75009;SDS011;63564;46.840;18.336;2023-04-25T12:43:01;5.53;;;2.27;;
75009;SDS011;63564;46.840;18.336;2023-04-25T12:46:02;4.82;;;2.40;;
75009;SDS011;63564;46.840;18.336;2023-04-25T12:49:03;5.43;;;2.20;;
75009;SDS011;63564;46.840;18.336;2023-04-25T12:52:04;7.20;;;2.53;;
75009;SDS011;63564;46.840;18.336;2023-04-25T12:55:05;6.07;;;2.00;;
75009;SDS011;63564;46.840;18.336;2023-04-25T12:58:06;5.80;;;2.10;;
75009;SDS011;63564;46.840;18.336;2023-04-25T13:01:06;4.63;;;2.13;;
75009;SDS011;63564;46.840;18.336;2023-04-25T13:04:07;3.70;;;2.07;;
75009;SDS011;63564;46.840;18.336;2023-04-25T13:07:07;4.50;;;2.03;;
75009;SDS011;63564;46.840;18.336;2023-04-25T13:10:07;4.10;;;2.00;;
75009;SDS011;63564;46.840;18.336;2023-04-25T13:13:08;4.63;;;2.10;;
75009;SDS011;63564;46.840;18.336;2023-04-25T13:16:08;3.67;;;1.77;;
75009;SDS011;63564;46.840;18.336;2023-04-25T13:19:09;4.32;;;1.80;;
75009;SDS011;63564;46.840;18.336;2023-04-25T13:22:11;4.60;;;1.87;;
75009;SDS011;63564;46.840;18.336;2023-04-25T13:25:12;5.03;;;2.00;;
75009;SDS011;63564;46.840;18.336;2023-04-25T13:28:13;4.83;;;1.90;;
75009;SDS011;63564;46.840;18.336;2023-04-25T13:31:13;5.18;;;1.80;;
75009;SDS011;63564;46.840;18.336;2023-04-25T13:34:14;4.83;;;2.10;;
75009;SDS011;63564;46.840;18.336;2023-04-25T13:37:14;3.15;;;1.63;;
75009;SDS011;63564;46.840;18.336;2023-04-25T13:40:15;3.50;;;1.80;;
75009;SDS011;63564;46.840;18.336;2023-04-25T13:43:15;2.97;;;1.63;;
75009;SDS011;63564;46.840;18.336;2023-04-25T13:46:16;3.30;;;1.70;;
75009;SDS011;63564;46.840;18.336;2023-04-25T13:49:16;4.80;;;2.20;;
75009;SDS011;63564;46.840;18.336;2023-04-25T13:52:17;3.70;;;1.90;;
75009;SDS011;63564;46.840;18.336;2023-04-25T13:55:18;5.07;;;2.20;;
75009;SDS011;63564;46.840;18.336;2023-04-25T13:58:19;3.97;;;2.47;;
75009;SDS011;63564;46.840;18.336;2023-04-25T14:01:20;4.60;;;2.60;;
75009;SDS011;63564;46.840;18.336;2023-04-25T14:04:21;4.27;;;1.90;;
75009;SDS011;63564;46.840;18.336;2023-04-25T14:07:21;3.10;;;1.70;;
75009;SDS011;63564;46.840;18.336;2023-04-25T14:10:21;3.63;;;1.90;;
75009;SDS011;63564;46.840;18.336;2023-04-25T14:13:22;4.00;;;1.90;;
75009;SDS011;63564;46.840;18.336;2023-04-25T14:16:23;4.63;;;2.50;;
75009;SDS011;63564;46.840;18.336;2023-04-25T14:19:23;5.03;;;2.30;;
75009;SDS011;63564;46.840;18.336;2023-04-25T14:22:24;4.33;;;2.00;;
75009;SDS011;63564;46.840;18.336;2023-04-25T14:25:25;4.78;;;2.30;;
75009;SDS011;63564;46.840;18.336;2023-04-25T14:28:27;3.95;;;2.00;;
75009;SDS011;63564;46.840;18.336;2023-04-25T14:31:28;3.40;;;1.90;;
75009;SDS011;63564;46.840;18.336;2023-04-25T14:34:28;5.30;;;2.20;;
75009;SDS011;63564;46.840;18.336;2023-04-25T14:37:28;5.17;;;1.90;;
75009;SDS011;63564;46.840;18.336;2023-04-25T14:40:29;2.90;;;1.50;;
75009;SDS011;63564;46.840;18.336;2023-04-25T14:43:29;3.43;;;1.83;;
75009;SDS011;63564;46.840;18.336;2023-04-25T14:46:29;5.13;;;2.17;;
75009;SDS011;63564;46.840;18.336;2023-04-25T14:49:31;4.83;;;2.40;;
75009;SDS011;63564;46.840;18.336;2023-04-25T14:52:32;4.53;;;2.08;;
75009;SDS011;63564;46.840;18.336;2023-04-25T14:55:32;4.73;;;2.13;;
75009;SDS011;63564;46.840;18.336;2023-04-25T14:58:33;3.43;;;2.07;;
75009;SDS011;63564;46.840;18.336;2023-04-25T15:01:33;3.83;;;2.10;;
75009;SDS011;63564;46.840;18.336;2023-04-25T15:04:34;6.20;;;2.30;;
75009;SDS011;63564;46.840;18.336;2023-04-25T15:07:35;5.10;;;2.08;;
75009;SDS011;63564;46.840;18.336;2023-04-25T15:10:35;4.43;;;1.93;;
75009;SDS011;63564;46.840;18.336;2023-04-25T15:13:36;4.68;;;1.90;;
75009;SDS011;63564;46.840;18.336;2023-04-25T15:16:37;3.10;;;1.60;;
75009;SDS011;63564;46.840;18.336;2023-04-25T15:19:37;3.13;;;1.60;;
75009;SDS011;63564;46.840;18.336;2023-04-25T15:22:41;3.83;;;1.67;;
75009;SDS011;63564;46.840;18.336;2023-04-25T15:25:43;3.00;;;1.50;;
75009;SDS011;63564;46.840;18.336;2023-04-25T15:28:44;3.00;;;1.50;;
75009;SDS011;63564;46.840;18.336;2023-04-25T15:31:44;3.97;;;1.70;;
75009;SDS011;63564;46.840;18.336;2023-04-25T15:34:45;2.53;;;1.50;;
75009;SDS011;63564;46.840;18.336;2023-04-25T15:37:45;4.97;;;2.10;;
75009;SDS011;63564;46.840;18.336;2023-04-25T15:40:46;3.80;;;2.00;;
75009;SDS011;63564;46.840;18.336;2023-04-25T15:43:47;3.97;;;1.77;;
75009;SDS011;63564;46.840;18.336;2023-04-25T15:46:47;4.28;;;1.90;;
75009;SDS011;63564;46.840;18.336;2023-04-25T15:49:48;5.17;;;1.97;;
75009;SDS011;63564;46.840;18.336;2023-04-25T15:52:48;5.43;;;2.10;;
75009;SDS011;63564;46.840;18.336;2023-04-25T15:55:49;4.00;;;1.98;;
75009;SDS011;63564;46.840;18.336;2023-04-25T15:58:50;3.90;;;1.73;;
75009;SDS011;63564;46.840;18.336;2023-04-25T16:01:51;3.45;;;1.60;;
75009;SDS011;63564;46.840;18.336;2023-04-25T16:04:52;3.33;;;1.70;;
75009;SDS011;63564;46.840;18.336;2023-04-25T16:07:52;3.87;;;1.40;;
75009;SDS011;63564;46.840;18.336;2023-04-25T16:10:53;2.77;;;1.67;;
75009;SDS011;63564;46.840;18.336;2023-04-25T16:13:53;3.15;;;1.40;;
75009;SDS011;63564;46.840;18.336;2023-04-25T16:16:54;2.97;;;1.30;;
75009;SDS011;63564;46.840;18.336;2023-04-25T16:19:55;3.20;;;1.50;;
75009;SDS011;63564;46.840;18.336;2023-04-25T16:22:55;3.35;;;1.63;;
75009;SDS011;63564;46.840;18.336;2023-04-25T16:25:56;4.20;;;1.77;;
75009;SDS011;63564;46.840;18.336;2023-04-25T16:28:56;4.13;;;1.80;;
75009;SDS011;63564;46.840;18.336;2023-04-25T16:31:57;3.50;;;1.70;;
75009;SDS011;63564;46.840;18.336;2023-04-25T16:34:57;6.33;;;2.07;;
75009;SDS011;63564;46.840;18.336;2023-04-25T16:37:57;5.37;;;2.30;;
75009;SDS011;63564;46.840;18.336;2023-04-25T16:40:58;4.60;;;1.77;;
75009;SDS011;63564;46.840;18.336;2023-04-25T16:43:58;4.77;;;2.10;;
75009;SDS011;63564;46.840;18.336;2023-04-25T16:46:59;3.83;;;1.77;;
75009;SDS011;63564;46.840;18.336;2023-04-25T16:49:59;5.17;;;2.10;;
75009;SDS011;63564;46.840;18.336;2023-04-25T16:53:00;5.68;;;2.70;;
75009;SDS011;63564;46.840;18.336;2023-04-25T16:56:00;9.17;;;3.00;;
75009;SDS011;63564;46.840;18.336;2023-04-25T16:59:01;7.20;;;3.25;;
75009;SDS011;63564;46.840;18.336;2023-04-25T17:02:01;7.10;;;2.90;;
75009;SDS011;63564;46.840;18.336;2023-04-25T17:05:02;6.57;;;2.90;;
75009;SDS011;63564;46.840;18.336;2023-04-25T17:08:02;7.47;;;2.90;;
75009;SDS011;63564;46.840;18.336;2023-04-25T17:11:03;6.20;;;2.95;;
75009;SDS011;63564;46.840;18.336;2023-04-25T17:14:04;5.67;;;2.90;;
75009;SDS011;63564;46.840;18.336;2023-04-25T17:17:05;7.05;;;2.70;;
75009;SDS011;63564;46.840;18.336;2023-04-25T17:20:06;6.37;;;3.10;;
75009;SDS011;63564;46.840;18.336;2023-04-25T17:23:07;6.63;;;3.00;;
75009;SDS011;63564;46.840;18.336;2023-04-25T17:26:08;6.30;;;3.08;;
75009;SDS011;63564;46.840;18.336;2023-04-25T17:29:08;7.67;;;3.07;;
75009;SDS011;63564;46.840;18.336;2023-04-25T17:32:09;6.80;;;2.65;;
75009;SDS011;63564;46.840;18.336;2023-04-25T17:35:10;6.37;;;2.27;;
75009;SDS011;63564;46.840;18.336;2023-04-25T17:38:10;5.13;;;2.42;;
75009;SDS011;63564;46.840;18.336;2023-04-25T17:41:12;6.25;;;2.55;;
75009;SDS011;63564;46.840;18.336;2023-04-25T17:44:14;6.25;;;2.50;;
75009;SDS011;63564;46.840;18.336;2023-04-25T17:47:15;6.77;;;2.47;;
75009;SDS011;63564;46.840;18.336;2023-04-25T17:50:15;6.00;;;2.40;;
75009;SDS011;63564;46.840;18.336;2023-04-25T17:53:16;5.95;;;2.65;;
75009;SDS011;63564;46.840;18.336;2023-04-25T17:56:16;8.53;;;2.47;;
75009;SDS011;63564;46.840;18.336;2023-04-25T17:59:18;5.13;;;2.58;;